Time;durP1;ratioP1;P1;durP2;ratioP2;P2;SDS_P1;SDS_P2;PMS_P1;PMS_P2;Temp;Humidity;BMP_temperature;BMP_pressure;BME280_temperature;BME280_humidity;BME280_pressure;Samples;Min_cycle;Max_cycle;Signal;HPM_P1;HPM_P2
2021/01/30 00:00:21;;;;;;;5.45;1.92;;;11.00;99.90;;;10.28;100.00;99885.88;4103041;29;20027;-71
2021/01/30 00:02:22;;;;;;;5.65;1.77;;;11.00;99.90;;;10.29;100.00;99877.00;4118683;28;20027;-71
2021/01/30 00:04:23;;;;;;;7.97;1.70;;;11.10;99.90;;;10.28;100.00;99880.63;4118896;28;20030;-70
2021/01/30 00:06:24;;;;;;;6.50;1.92;;;11.10;99.90;;;10.36;100.00;99859.50;4103035;29;20098;-70
2021/01/30 00:08:25;;;;;;;6.93;2.15;;;11.10;99.90;;;10.35;100.00;99856.03;4118975;28;20023;-70
2021/01/30 00:10:27;;;;;;;5.57;2.22;;;11.20;99.90;;;10.52;100.00;99861.97;4118981;28;20035;-70
2021/01/30 00:12:28;;;;;;;5.90;2.10;;;11.20;99.90;;;10.54;100.00;99844.97;4135935;28;20019;-70
2021/01/30 00:14:36;;;;;;;10.35;3.65;;;11.30;99.90;;;10.56;100.00;99842.19;4134938;28;20089;-70
2021/01/30 00:16:37;;;;;;;8.55;2.90;;;11.30;99.90;;;10.66;100.00;99832.22;4135024;28;20029;-70
2021/01/30 00:18:37;;;;;;;5.75;2.55;;;11.30;99.90;;;10.68;100.00;99832.84;4135867;28;20030;-71
2021/01/30 00:20:39;;;;;;;8.77;2.95;;;11.40;99.90;;;10.69;100.00;99810.75;4135871;28;20030;-71
2021/01/30 00:22:40;;;;;;;10.98;2.80;;;11.40;99.90;;;10.76;100.00;99818.75;4134509;28;20050;-71
2021/01/30 00:24:45;;;;;;;9.60;2.28;;;11.50;99.90;;;10.80;100.00;99812.94;4118372;28;20078;-71
2021/01/30 00:26:56;;;;;;;8.38;3.30;;;11.50;99.90;;;10.88;100.00;99809.41;4119206;28;20034;-70
2021/01/30 00:28:57;;;;;;;10.13;2.92;;;11.60;99.90;;;10.85;100.00;99802.66;4140211;28;20022;-70
2021/01/30 00:30:57;;;;;;;13.43;3.92;;;11.60;99.90;;;10.88;100.00;99797.03;4118774;28;20038;-70
2021/01/30 00:32:59;;;;;;;8.52;2.40;;;11.70;99.90;;;10.90;100.00;99792.38;4118647;28;20026;-71
2021/01/30 00:35:00;;;;;;;7.38;2.60;;;11.70;99.90;;;11.01;100.00;99788.50;4135815;28;20030;-71
2021/01/30 00:37:22;;;;;;;8.35;2.92;;;11.70;99.90;;;11.08;100.00;99784.09;4118567;28;20022;-71
2021/01/30 00:39:24;;;;;;;9.57;2.70;;;11.80;99.90;;;11.05;100.00;99773.94;4135910;28;20038;-71
2021/01/30 00:41:25;;;;;;;6.78;2.80;;;11.80;99.90;;;11.10;100.00;99782.94;4118582;28;20038;-71
2021/01/30 00:43:26;;;;;;;3.58;2.00;;;11.80;99.90;;;11.11;100.00;99775.81;4118627;28;20069;-71
2021/01/30 00:45:28;;;;;;;6.10;1.85;;;11.80;99.90;;;11.16;100.00;99773.47;4118638;28;20031;-71
2021/01/30 00:47:29;;;;;;;8.35;2.33;;;11.90;99.90;;;11.13;100.00;99778.28;4118204;28;20059;-71
2021/01/30 00:49:30;;;;;;;5.93;1.85;;;11.90;99.90;;;11.18;100.00;99762.72;4135825;28;20026;-71
2021/01/30 00:51:31;;;;;;;4.15;2.17;;;11.90;99.90;;;11.15;100.00;99750.72;4118352;28;20031;-71
2021/01/30 00:53:32;;;;;;;4.57;1.50;;;11.90;99.90;;;11.15;100.00;99757.81;4118493;28;20038;-71
2021/01/30 00:55:33;;;;;;;7.75;1.80;;;11.90;99.90;;;11.17;100.00;99755.81;4118376;28;20035;-71
2021/01/30 00:57:33;;;;;;;2.92;1.50;;;11.90;99.90;;;11.14;100.00;99745.63;4135645;28;20030;-71
2021/01/30 00:59:35;;;;;;;2.10;1.30;;;12.00;99.90;;;11.19;100.00;99737.97;4134647;28;20066;-71
2021/01/30 01:01:39;;;;;;;2.85;1.13;;;12.00;99.90;;;11.21;100.00;99725.41;4102207;29;20027;-71
2021/01/30 01:03:40;;;;;;;;;;;11.90;99.90;;;11.13;100.00;99717.59;4102626;29;20039;-71
2021/01/30 01:05:41;;;;;;;4.30;1.83;;;11.90;99.90;;;11.22;100.00;99721.75;4135498;28;20000;-71
2021/01/30 01:07:44;;;;;;;4.32;1.85;;;12.00;99.90;;;11.18;100.00;99716.03;4135438;28;20036;-71
2021/01/30 01:09:44;;;;;;;5.85;1.27;;;12.00;99.90;;;11.14;100.00;99708.69;4118266;28;20027;-71
2021/01/30 01:11:50;;;;;;;6.53;1.85;;;12.00;99.90;;;11.19;100.00;99695.72;4118234;28;20046;-71
2021/01/30 01:13:51;;;;;;;4.15;2.30;;;12.00;99.90;;;11.25;100.00;99714.31;4102182;28;20031;-71
2021/01/30 01:15:53;;;;;;;5.15;2.22;;;12.00;99.90;;;11.19;100.00;99695.72;4135559;28;20387;-71
2021/01/30 01:17:54;;;;;;;3.63;1.60;;;12.00;99.90;;;11.22;100.00;99698.81;4118126;28;20548;-71
2021/01/30 01:19:55;;;;;;;5.65;1.60;;;12.00;99.90;;;11.22;100.00;99684.81;4135411;28;20034;-71
2021/01/30 01:21:56;;;;;;;5.68;2.60;;;12.00;99.90;;;11.27;100.00;99682.41;4118006;28;20062;-71
2021/01/30 01:23:57;;;;;;;3.47;1.48;;;12.10;99.90;;;11.26;100.00;99678.16;4102073;29;20527;-71
2021/01/30 01:25:58;;;;;;;3.20;1.60;;;12.00;99.90;;;11.29;100.00;99681.22;4118155;28;20031;-71
2021/01/30 01:27:59;;;;;;;4.20;2.15;;;12.10;99.90;;;11.32;100.00;99680.06;4118227;28;20140;-71
2021/01/30 01:30:00;;;;;;;4.43;1.90;;;12.10;99.90;;;11.28;100.00;99662.94;4122540;28;20027;-71
2021/01/30 01:32:01;;;;;;;5.75;2.15;;;12.10;99.90;;;11.36;100.00;99660.19;4117927;28;20026;-71
2021/01/30 01:34:02;;;;;;;5.07;1.70;;;12.10;99.90;;;11.30;100.00;99645.91;4102210;29;20031;-71
2021/01/30 01:36:04;;;;;;;5.43;1.75;;;12.10;99.90;;;11.37;100.00;99644.16;4135443;28;20026;-71
2021/01/30 01:38:04;;;;;;;6.07;2.90;;;12.20;99.90;;;11.33;100.00;99637.63;4133990;28;20034;-71
2021/01/30 01:40:06;;;;;;;6.60;2.35;;;12.20;99.90;;;11.41;100.00;99636.69;4118044;28;20046;-71
2021/01/30 01:42:20;;;;;;;7.50;2.15;;;12.20;99.90;;;11.43;100.00;99648.69;4135466;28;20042;-71
2021/01/30 01:44:21;;;;;;;6.75;2.67;;;12.20;99.90;;;11.40;100.00;99641.16;4135240;28;20034;-71
2021/01/30 01:46:36;;;;;;;5.68;2.40;;;12.20;99.90;;;11.42;100.00;99643.59;4135302;28;20127;-71
2021/01/30 01:49:02;;;;;;;;;;;12.20;99.90;;;11.41;100.00;99637.47;4118628;28;20036;-71
2021/01/30 01:51:08;;;;;;;6.18;3.47;;;12.20;99.90;;;11.39;100.00;99636.88;4135396;28;19935;-71
2021/01/30 01:53:20;;;;;;;4.63;2.20;;;12.20;99.90;;;11.38;100.00;99637.84;4118086;28;20042;-71
2021/01/30 01:55:22;;;;;;;3.97;1.50;;;12.20;99.90;;;11.40;100.00;99619.19;4135324;28;20393;-71
2021/01/30 01:57:24;;;;;;;6.07;2.60;;;12.20;99.90;;;11.43;100.00;99634.66;4117973;28;20490;-71
2021/01/30 01:59:26;;;;;;;3.58;1.30;;;12.20;99.90;;;11.39;100.00;99630.75;4117752;28;20094;-71
2021/01/30 02:01:29;;;;;;;6.88;2.10;;;12.20;99.90;;;11.41;100.00;99626.91;4118052;28;20553;-71
2021/01/30 02:03:32;;;;;;;5.35;1.70;;;12.20;99.90;;;11.40;100.00;99642.97;4117888;28;20162;-71
2021/01/30 02:05:37;;;;;;;6.70;2.22;;;12.20;99.90;;;11.40;100.00;99640.31;4117925;28;20051;-71
2021/01/30 02:07:42;;;;;;;7.50;2.47;;;12.20;99.90;;;11.41;100.00;99623.50;4135153;28;20106;-71
2021/01/30 02:09:43;;;;;;;6.53;2.00;;;12.20;99.90;;;11.35;100.00;99619.75;4135296;28;20038;-71
2021/01/30 02:12:03;;;;;;;9.48;2.15;;;12.20;99.90;;;11.40;100.00;99621.84;4138191;28;20014;-71
2021/01/30 02:14:06;;;;;;;6.82;1.83;;;12.20;99.90;;;11.33;100.00;99619.13;4121134;28;20078;-71
2021/01/30 02:16:49;;;;;;;11.88;2.30;;;12.20;99.90;;;11.33;100.00;99619.13;4121233;28;20089;-71
2021/01/30 02:18:53;;;;;;;8.85;2.80;;;12.10;99.90;;;11.35;100.00;99616.31;4138140;28;20045;-71
2021/01/30 02:21:31;;;;;;;8.20;2.60;;;12.20;99.90;;;11.33;100.00;99621.78;4136793;28;20058;-71
2021/01/30 02:24:19;;;;;;;10.77;2.35;;;12.10;99.90;;;11.32;100.00;99609.56;4124846;28;20548;-71
2021/01/30 02:27:03;;;;;;;11.50;3.25;;;12.10;99.90;;;11.37;100.00;99609.03;4120309;28;20154;-71
2021/01/30 02:29:53;;;;;;;8.88;2.15;;;12.10;99.90;;;11.31;100.00;99615.88;4126711;28;20514;-71
2021/01/30 02:32:07;;;;;;;7.05;2.65;;;12.10;99.90;;;11.29;100.00;99607.31;4137500;28;20045;-70
2021/01/30 02:34:32;;;;;;;9.07;2.85;;;12.10;99.90;;;11.27;100.00;99603.22;4137996;28;20037;-71
2021/01/30 02:36:52;;;;;;;;;;;12.10;99.90;;;11.25;100.00;99589.41;4138201;28;20408;-71
2021/01/30 02:39:21;;;;;;;13.80;2.60;;;12.10;99.90;;;11.23;100.00;99604.63;4136552;28;20285;-71
2021/01/30 02:41:37;;;;;;;13.30;3.08;;;12.10;99.90;;;11.24;100.00;99603.59;4121252;28;20033;-71
2021/01/30 02:43:44;;;;;;;17.15;3.90;;;12.10;99.90;;;11.14;100.00;99597.81;4121977;28;20030;-71
2021/01/30 02:45:54;;;;;;;9.23;2.92;;;12.10;99.90;;;11.16;100.00;99587.88;4120803;28;20041;-71
2021/01/30 02:48:30;;;;;;;14.00;3.33;;;12.00;99.90;;;11.13;100.00;99598.81;4104610;28;20035;-71
2021/01/30 02:50:45;;;;;;;22.42;3.25;;;12.00;99.90;;;11.11;100.00;99583.97;4127321;28;20038;-71
2021/01/30 02:52:50;;;;;;;16.83;4.05;;;12.00;99.90;;;11.14;100.00;99598.63;4121310;28;20057;-71
2021/01/30 02:54:57;;;;;;;17.35;3.53;;;12.00;99.90;;;11.13;100.00;99593.53;4120685;28;20027;-71
2021/01/30 02:56:59;;;;;;;18.23;4.45;;;12.00;99.90;;;11.05;100.00;99582.09;4120419;28;20044;-71
2021/01/30 02:59:19;;;;;;;16.92;3.72;;;12.00;99.90;;;11.13;100.00;99586.44;4120319;28;20062;-71
2021/01/30 03:01:20;;;;;;;20.63;4.97;;;11.90;99.90;;;11.16;100.00;99579.97;4120581;28;20530;-71
2021/01/30 03:03:21;;;;;;;23.27;3.90;;;11.90;99.90;;;11.09;100.00;99564.06;4120044;28;20103;-71
2021/01/30 03:05:22;;;;;;;25.23;5.32;;;12.00;99.90;;;11.10;100.00;99573.63;4137333;28;20035;-71
2021/01/30 03:07:38;;;;;;;20.13;4.82;;;12.00;99.90;;;11.09;100.00;99570.16;4120326;28;20038;-71
2021/01/30 03:10:05;;;;;;;22.77;4.88;;;12.00;99.90;;;11.09;100.00;99551.69;4120198;28;20031;-71
2021/01/30 03:12:34;;;;;;;23.25;5.70;;;11.90;99.90;;;11.08;100.00;99551.88;4122614;28;20053;-71
2021/01/30 03:14:54;;;;;;;25.25;5.13;;;11.90;99.90;;;11.09;100.00;99549.06;4120713;28;20691;-71
2021/01/30 03:16:59;;;;;;;24.17;5.40;;;11.90;99.90;;;11.07;100.00;99537.06;4120241;28;20389;-71
2021/01/30 03:19:29;;;;;;;28.70;5.35;;;11.90;99.90;;;11.13;100.00;99543.41;4120000;28;20090;-71
2021/01/30 03:21:32;;;;;;;29.05;5.22;;;12.00;99.90;;;11.13;100.00;99540.75;4119494;28;20031;-71
2021/01/30 03:23:35;;;;;;;28.55;5.32;;;11.90;99.90;;;11.08;100.00;99534.22;4135673;28;20030;-71
2021/01/30 03:25:39;;;;;;;32.08;6.05;;;11.90;99.90;;;11.08;100.00;99530.75;4119509;28;20027;-71
2021/01/30 03:27:40;;;;;;;34.05;7.93;;;11.90;99.90;;;11.06;100.00;99525.69;4120040;28;20518;-71
2021/01/30 03:29:41;;;;;;;30.25;5.47;;;11.90;99.90;;;11.05;100.00;99505.56;4124528;28;20030;-70
2021/01/30 03:31:42;;;;;;;32.28;6.47;;;11.90;99.90;;;10.98;100.00;99511.78;4136722;28;20326;-71
2021/01/30 03:33:43;;;;;;;29.70;6.55;;;11.90;99.90;;;11.00;100.00;99515.88;4119582;28;20038;-71
2021/01/30 03:35:44;;;;;;;25.45;4.93;;;11.80;99.90;;;11.08;100.00;99517.56;4119713;28;20474;-71
2021/01/30 03:37:46;;;;;;;26.83;6.18;;;11.90;99.90;;;11.01;100.00;99509.59;4136943;28;20026;-71
2021/01/30 03:39:47;;;;;;;28.75;4.90;;;11.90;99.90;;;11.05;100.00;99504.78;4135520;28;20092;-71
2021/01/30 03:41:48;;;;;;;34.55;7.35;;;11.90;99.90;;;11.00;100.00;99500.03;4119448;28;20029;-71
2021/01/30 03:43:49;;;;;;;32.22;6.75;;;11.90;99.90;;;10.97;100.00;99502.22;4119625;28;20038;-71
2021/01/30 03:45:50;;;;;;;34.72;6.45;;;11.90;99.90;;;11.06;100.00;99493.19;4119430;28;20509;-71
2021/01/30 03:47:51;;;;;;;30.88;6.07;;;11.90;99.90;;;11.02;100.00;99503.31;4103200;29;20031;-71
2021/01/30 03:49:52;;;;;;;35.65;6.38;;;11.90;99.90;;;11.00;100.00;99500.03;4135411;28;20394;-71
2021/01/30 03:51:53;;;;;;;39.10;7.85;;;11.80;99.90;;;11.00;100.00;99489.50;4136744;28;20109;-71
2021/01/30 03:53:54;;;;;;;30.80;5.43;;;11.90;99.90;;;10.97;100.00;99492.50;4119413;28;20094;-71
2021/01/30 03:55:55;;;;;;;30.25;5.43;;;11.80;99.90;;;10.97;100.00;99476.66;4136545;28;20041;-71
2021/01/30 03:57:56;;;;;;;34.05;7.30;;;11.80;99.90;;;11.00;100.00;99486.84;4136516;28;20393;-71
2021/01/30 03:59:57;;;;;;;28.77;6.25;;;11.80;99.90;;;11.01;100.00;99490.31;4119450;28;20057;-71
2021/01/30 04:01:58;;;;;;;31.00;6.38;;;11.80;99.90;;;11.00;100.00;99486.84;4136301;28;20037;-71
2021/01/30 04:03:59;;;;;;;33.90;6.78;;;11.80;99.90;;;11.00;100.00;99489.50;4136540;28;20035;-71
2021/01/30 04:05:59;;;;;;;24.88;5.55;;;11.80;99.90;;;10.97;100.00;99487.22;4102934;29;20031;-71
2021/01/30 04:08:01;;;;;;;29.38;7.03;;;11.80;99.90;;;10.99;100.00;99479.94;4119291;28;20023;-71
2021/01/30 04:10:07;;;;;;;30.05;6.50;;;11.80;99.90;;;11.00;100.00;99476.28;4136525;28;20029;-71
2021/01/30 04:12:09;;;;;;;25.65;4.90;;;11.80;99.90;;;10.97;100.00;99474.03;4102945;28;20533;-72
2021/01/30 04:14:10;;;;;;;32.45;5.20;;;11.90;99.90;;;10.89;100.00;99474.16;4118989;28;20046;-71
2021/01/30 04:16:11;;;;;;;34.53;6.30;;;11.80;99.90;;;10.89;100.00;99463.63;4136392;28;20038;-71
2021/01/30 04:18:13;;;;;;;26.30;5.68;;;11.80;99.90;;;10.95;100.00;99478.69;4136124;28;20074;-71
2021/01/30 04:20:16;;;;;;;31.30;5.03;;;11.80;99.90;;;10.93;100.00;99469.34;4119046;28;20165;-71
2021/01/30 04:22:17;;;;;;;34.53;6.70;;;11.80;99.90;;;10.94;100.00;99465.66;4118723;28;20042;-71
2021/01/30 04:24:18;;;;;;;32.25;7.38;;;11.80;99.90;;;10.91;100.00;99474.78;4118940;28;20081;-71
2021/01/30 04:26:20;;;;;;;26.00;7.15;;;11.70;99.90;;;10.91;100.00;99460.78;4102817;29;20618;-70
2021/01/30 04:28:21;;;;;;;24.80;4.40;;;11.80;99.90;;;10.86;100.00;99448.16;4121524;28;20081;-70
2021/01/30 04:30:26;;;;;;;24.38;4.78;;;11.70;99.90;;;10.89;100.00;99457.53;4104375;28;20450;-70
2021/01/30 04:32:27;;;;;;;28.33;4.97;;;11.70;99.90;;;10.92;100.00;99454.50;4118671;28;20046;-71
2021/01/30 04:34:28;;;;;;;25.60;6.28;;;11.70;99.90;;;10.91;100.00;99455.50;4118795;28;20031;-71
2021/01/30 04:36:29;;;;;;;22.67;5.50;;;11.80;99.90;;;10.92;100.00;99452.69;4102738;29;20039;-71
2021/01/30 04:38:30;;;;;;;26.35;5.72;;;11.70;99.90;;;10.89;100.00;99449.59;4102633;29;20128;-70
2021/01/30 04:40:45;;;;;;;26.85;5.57;;;11.70;99.90;;;10.88;100.00;99438.22;4120005;28;20034;-71
2021/01/30 04:43:04;;;;;;;35.40;6.43;;;11.70;99.90;;;10.93;100.00;99449.03;4102855;28;20027;-71
2021/01/30 04:45:29;;;;;;;26.55;5.40;;;11.70;99.90;;;10.93;100.00;99442.94;4119648;28;20035;-71
2021/01/30 04:47:43;;;;;;;25.52;6.55;;;11.70;99.90;;;10.95;100.00;99439.13;4102312;29;20050;-71
2021/01/30 04:50:12;;;;;;;29.95;4.75;;;11.80;99.90;;;10.97;100.00;99431.00;4119692;28;20030;-71
2021/01/30 04:52:32;;;;;;;38.05;6.78;;;11.70;99.90;;;11.01;100.00;99437.53;4119890;28;20506;-71
2021/01/30 04:55:01;;;;;;;32.92;5.57;;;11.80;99.90;;;10.96;100.00;99432.03;4118568;28;20038;-71
2021/01/30 04:57:37;;;;;;;33.70;6.95;;;11.80;99.90;;;10.97;100.00;99425.72;4119790;28;20038;-71
2021/01/30 05:00:23;;;;;;;37.75;6.90;;;11.70;99.90;;;11.00;100.00;99402.41;4106595;28;20042;-71
2021/01/30 05:02:36;;;;;;;32.92;6.43;;;11.80;99.90;;;11.02;100.00;99421.50;4102260;29;20034;-71
2021/01/30 05:04:48;;;;;;;36.13;7.78;;;11.80;99.90;;;10.93;100.00;99417.38;4119468;28;20039;-71
2021/01/30 05:07:07;;;;;;;33.28;7.85;;;11.80;99.90;;;10.97;100.00;99413.34;4102872;28;20035;-71
2021/01/30 05:09:25;;;;;;;26.25;6.07;;;11.80;99.90;;;11.02;100.00;99413.59;4119612;28;20493;-71
2021/01/30 05:11:30;;;;;;;35.22;4.93;;;11.80;99.90;;;10.99;100.00;99398.13;4118516;28;20027;-71
2021/01/30 05:13:55;;;;;;;30.40;5.25;;;11.80;99.90;;;10.99;100.00;99395.50;4118471;28;20027;-70
2021/01/30 05:16:13;;;;;;;41.13;7.45;;;11.80;99.90;;;11.01;100.00;99398.78;4102840;28;20057;-70
2021/01/30 05:18:34;;;;;;;31.33;5.90;;;11.80;99.90;;;10.93;100.00;99396.25;4102675;28;20491;-71
2021/01/30 05:20:41;;;;;;;31.27;6.93;;;11.70;99.90;;;10.90;100.00;99391.34;4102141;29;20038;-71
2021/01/30 05:22:46;;;;;;;40.17;7.07;;;11.70;99.90;;;10.93;100.00;99383.06;4103613;28;20094;-70
2021/01/30 05:24:47;;;;;;;32.75;7.13;;;11.70;99.90;;;10.90;100.00;99396.63;4118471;28;20122;-72
2021/01/30 05:27:28;;;;;;;40.47;8.32;;;11.70;99.90;;;10.98;100.00;99403.63;4118284;28;20375;-71
2021/01/30 05:29:50;;;;;;;36.20;6.68;;;11.70;99.90;;;10.92;100.00;99383.28;4139784;28;20019;-70
2021/01/30 05:32:10;;;;;;;30.38;7.57;;;11.70;99.90;;;10.93;100.00;99385.69;4119022;28;20062;-71
2021/01/30 05:34:24;;;;;;;39.20;8.75;;;11.80;99.90;;;10.91;100.00;99392.19;4135797;28;20037;-70
2021/01/30 05:37:03;;;;;;;37.50;6.68;;;11.80;99.90;;;10.87;100.00;99365.34;4118957;28;20030;-71
2021/01/30 05:39:28;;;;;;;40.92;8.10;;;11.70;99.90;;;10.91;100.00;99371.06;4119969;28;20046;-71
2021/01/30 05:41:54;;;;;;;44.50;8.02;;;11.70;99.90;;;10.88;100.00;99372.28;4118853;28;20066;-71
2021/01/30 05:44:13;;;;;;;40.40;7.70;;;11.70;99.90;;;10.79;100.00;99359.41;4135571;28;20058;-70
2021/01/30 05:46:30;;;;;;;42.70;8.02;;;11.70;99.90;;;10.81;100.00;99376.69;4104638;28;20060;-71
2021/01/30 05:48:37;;;;;;;39.95;10.00;;;11.60;99.90;;;10.78;100.00;99374.41;4121621;28;20039;-71
2021/01/30 05:50:56;;;;;;;48.13;9.43;;;11.50;99.90;;;10.82;100.00;99377.50;4137444;28;20026;-70
2021/01/30 05:52:59;;;;;;;35.75;6.75;;;11.60;99.90;;;10.83;100.00;99379.97;4122483;28;20023;-71
2021/01/30 05:55:00;;;;;;;35.38;7.65;;;11.60;99.90;;;10.83;100.00;99368.59;4138775;28;20398;-71
2021/01/30 05:57:01;;;;;;;42.90;7.75;;;11.60;99.90;;;10.84;100.00;99375.50;4121091;28;20127;-71
2021/01/30 05:59:03;;;;;;;34.03;8.55;;;11.60;99.90;;;10.82;100.00;99370.41;4121298;28;20541;-71
2021/01/30 06:01:29;;;;;;;57.17;9.93;;;11.70;99.90;;;10.80;100.00;99377.69;4121090;28;20031;-71
2021/01/30 06:03:30;;;;;;;39.70;7.88;;;11.70;99.90;;;10.75;100.00;99366.88;4104118;29;20533;-70
2021/01/30 06:05:50;;;;;;;43.80;8.60;;;11.60;99.90;;;10.79;100.00;99362.88;4121011;28;20026;-70
2021/01/30 06:08:27;;;;;;;43.65;9.50;;;11.60;99.90;;;10.81;100.00;99355.56;4138511;28;20401;-70
2021/01/30 06:10:31;;;;;;;35.70;8.15;;;11.60;99.90;;;10.79;100.00;99360.22;4123065;28;20046;-70
2021/01/30 06:12:36;;;;;;;44.17;8.23;;;11.60;99.90;;;10.79;100.00;99367.31;4121039;28;20035;-70
2021/01/30 06:15:19;;;;;;;40.42;8.80;;;11.60;99.90;;;10.75;100.00;99351.06;4121378;28;20039;-71
2021/01/30 06:17:26;;;;;;;49.25;8.30;;;11.60;99.90;;;10.81;100.00;99355.56;4137851;28;20030;-72
2021/01/30 06:19:33;;;;;;;40.88;7.82;;;11.60;99.90;;;10.76;100.00;99357.16;4138413;28;20030;-71
2021/01/30 06:21:34;;;;;;;48.03;9.52;;;11.60;99.90;;;10.79;100.00;99360.22;4120779;28;20059;-70
2021/01/30 06:23:37;;;;;;;42.22;9.82;;;11.60;99.90;;;10.79;100.00;99362.88;4137071;28;20150;-70
2021/01/30 06:25:40;;;;;;;40.75;7.97;;;11.60;99.90;;;10.84;100.00;99360.47;4137996;28;20077;-70
2021/01/30 06:27:42;;;;;;;36.95;7.82;;;11.60;99.90;;;10.78;100.00;99360.44;4120838;28;20466;-70
2021/01/30 06:29:49;;;;;;;51.97;10.95;;;11.60;99.90;;;10.78;100.00;99353.31;4104639;28;20027;-70
2021/01/30 06:31:51;;;;;;;50.58;10.55;;;11.60;99.90;;;10.75;100.00;99351.06;4137801;28;20029;-71
2021/01/30 06:34:15;;;;;;;33.67;8.52;;;11.60;99.90;;;10.75;100.00;99352.91;4120997;28;20042;-71
2021/01/30 06:36:22;;;;;;;38.70;11.35;;;11.50;99.90;;;10.72;100.00;99351.44;4122555;28;20030;-70
2021/01/30 06:38:32;;;;;;;56.22;10.25;;;11.50;99.90;;;10.67;100.00;99338.03;4120815;28;20088;-72
2021/01/30 06:41:03;;;;;;;48.97;9.18;;;11.50;99.90;;;10.71;100.00;99338.47;4120523;28;20118;-71
2021/01/30 06:43:15;;;;;;;40.92;8.80;;;11.50;99.90;;;10.68;100.00;99318.56;4119171;28;20057;-71
2021/01/30 06:45:28;;;;;;;58.92;12.00;;;11.40;99.90;;;10.72;100.00;99316.38;4121107;28;20055;-71
2021/01/30 06:47:29;;;;;;;61.88;15.50;;;11.30;99.90;;;10.53;100.00;99296.75;4120467;28;20042;-71
2021/01/30 06:49:41;;;;;;;50.03;12.57;;;11.30;99.90;;;10.52;100.00;99295.91;4137861;28;20018;-71
2021/01/30 06:51:42;;;;;;;53.97;12.40;;;11.20;99.90;;;10.60;100.00;99317.88;4121218;28;20027;-70
2021/01/30 06:53:43;;;;;;;54.90;14.13;;;11.20;99.90;;;10.53;100.00;99309.91;4120592;28;20062;-71
2021/01/30 06:55:45;;;;;;;63.25;13.60;;;11.10;99.90;;;10.52;100.00;99324.09;4120490;28;20425;-70
2021/01/30 06:57:58;;;;;;;48.33;11.88;;;11.10;99.90;;;10.45;100.00;99318.75;4119068;28;20542;-70
2021/01/30 07:00:31;;;;;;;42.22;9.75;;;11.10;99.90;;;10.47;100.00;99335.22;4137738;28;20041;-71
2021/01/30 07:02:42;;;;;;;53.30;10.30;;;11.10;99.90;;;10.46;100.00;99324.84;4105301;28;20039;-71
2021/01/30 07:05:38;;;;;;;48.35;11.98;;;11.10;99.90;;;10.45;100.00;99321.41;4120350;28;20492;-70
2021/01/30 07:08:17;;;;;;;59.13;11.50;;;11.10;99.90;;;10.43;100.00;99298.88;4133240;28;20041;-70
2021/01/30 07:10:58;;;;;;;58.80;12.98;;;11.10;99.90;;;10.45;100.00;99310.84;4137512;28;20037;-70
2021/01/30 07:13:44;;;;;;;54.22;11.05;;;11.10;99.90;;;10.37;100.00;99291.72;4137530;28;20030;-70
2021/01/30 07:16:03;;;;;;;56.03;10.68;;;11.00;99.90;;;10.27;100.00;99299.16;4119405;28;20062;-70
2021/01/30 07:18:31;;;;;;;63.92;12.88;;;11.00;99.90;;;10.31;100.00;99280.13;4137330;28;20061;-71
2021/01/30 07:21:08;;;;;;;51.17;11.57;;;11.00;99.90;;;10.36;100.00;99266.38;4103987;28;20034;-70
2021/01/30 07:23:25;;;;;;;66.07;10.70;;;11.00;99.90;;;10.37;100.00;99266.19;4121978;28;20081;-70
2021/01/30 07:25:47;;;;;;;56.22;11.43;;;11.00;99.90;;;10.36;100.00;99261.13;4136926;28;20476;-71
2021/01/30 07:28:15;;;;;;;61.35;14.10;;;11.00;99.90;;;10.32;100.00;99254.59;4121123;28;20458;-70
2021/01/30 07:30:25;;;;;;;53.35;10.55;;;11.00;99.90;;;10.37;100.00;99249.56;4118953;28;20085;-71
2021/01/30 07:32:36;;;;;;;55.50;12.20;;;11.00;99.90;;;10.40;100.00;99257.91;4120266;28;20031;-70
2021/01/30 07:35:21;;;;;;;55.30;10.73;;;11.00;99.90;;;10.35;100.00;99251.56;4119603;28;20117;-71
2021/01/30 07:37:57;;;;;;;58.83;10.27;;;11.00;99.90;;;10.33;100.00;99250.97;4119809;28;20096;-70
2021/01/30 07:40:02;;;;;;;63.58;12.25;;;11.10;99.90;;;10.37;100.00;99249.56;4121534;28;20070;-70
2021/01/30 07:42:11;;;;;;;69.72;13.80;;;11.10;99.90;;;10.46;100.00;99245.78;4120001;28;20053;-70
2021/01/30 07:44:26;;;;;;;68.75;13.00;;;11.10;99.90;;;10.47;100.00;99242.13;4120369;28;20110;-70
2021/01/30 07:46:42;;;;;;;;;;;11.10;99.90;;;10.45;100.00;99238.88;4119673;28;20434;-71
2021/01/30 07:49:01;;;;;;;;;;;11.10;99.90;;;10.38;100.00;99238.00;4120331;28;19949;-71
2021/01/30 07:51:16;;;;;;;62.42;11.57;;;11.10;99.90;;;10.41;100.00;99235.81;4120218;28;19914;-71
2021/01/30 07:53:20;;;;;;;49.45;10.82;;;11.10;99.90;;;10.42;100.00;99224.25;4119741;28;20102;-71
2021/01/30 07:55:21;;;;;;;59.55;11.30;;;11.10;99.90;;;10.40;100.00;99225.44;4119509;28;20084;-71
2021/01/30 07:57:58;;;;;;;59.80;14.43;;;11.10;99.90;;;10.37;100.00;99236.38;4136637;28;20023;-71
2021/01/30 08:00:20;;;;;;;66.47;13.88;;;11.00;99.90;;;10.37;100.00;99228.47;4136752;28;20117;-71
2021/01/30 08:02:26;;;;;;;57.70;12.73;;;11.00;99.90;;;10.43;100.00;99225.88;4119339;28;20398;-71
2021/01/30 08:05:02;;;;;;;61.75;11.85;;;11.00;99.90;;;10.47;100.00;99232.41;4136407;28;20033;-71
2021/01/30 08:07:26;;;;;;;71.45;16.20;;;11.00;99.90;;;10.44;100.00;99219.63;4135263;28;20117;-71
2021/01/30 08:09:34;;;;;;;59.42;12.40;;;11.00;99.90;;;10.48;100.00;99222.69;4133868;28;20030;-70
2021/01/30 08:12:01;;;;;;;61.10;11.88;;;11.10;99.90;;;10.32;100.00;99215.88;4136301;28;20114;-71
2021/01/30 08:14:35;;;;;;;49.22;11.32;;;11.00;99.90;;;10.49;100.00;99204.03;4119718;28;20078;-71
2021/01/30 08:17:11;;;;;;;60.78;14.52;;;11.10;99.90;;;10.52;100.00;99202.81;4135879;28;20038;-70
2021/01/30 08:19:48;;;;;;;61.97;13.05;;;11.20;99.90;;;10.51;99.53;99198.56;4130726;28;20046;-70
2021/01/30 08:22:03;;;;;;;60.78;11.57;;;11.20;99.90;;;10.48;99.40;99202.38;4121224;28;20054;-71
2021/01/30 08:24:49;;;;;;;48.63;10.25;;;11.20;99.90;;;10.53;99.09;99191.28;4119740;28;20083;-70
2021/01/30 08:27:11;;;;;;;;;;;11.30;99.90;;;10.63;98.74;99183.84;4113069;28;20038;-70
2021/01/30 08:29:34;;;;;;;54.22;12.32;;;11.30;99.90;;;10.60;98.35;99178.13;4108327;28;19914;-71
2021/01/30 08:31:49;;;;;;;53.90;12.45;;;11.40;99.90;;;10.71;98.24;99169.69;4130618;28;20060;-70
2021/01/30 08:34:10;;;;;;;60.65;11.75;;;11.50;99.90;;;10.71;97.22;99170.50;4107325;28;20035;-70
2021/01/30 08:36:34;;;;;;;53.72;12.48;;;11.60;99.90;;;10.78;96.59;99166.03;4119751;28;20023;-72
2021/01/30 08:38:37;;;;;;;60.88;13.43;;;11.60;99.90;;;10.78;96.13;99163.41;4135959;28;20112;-71
2021/01/30 08:40:50;;;;;;;46.55;10.80;;;11.60;99.90;;;10.74;96.37;99154.28;4118813;28;20468;-71
2021/01/30 08:42:56;;;;;;;48.55;12.57;;;11.60;99.90;;;10.71;96.27;99159.13;4135878;28;20026;-71
2021/01/30 08:45:03;;;;;;;43.38;9.73;;;11.50;99.90;;;10.75;96.14;99150.63;4118385;28;20074;-71
2021/01/30 08:47:36;;;;;;;60.47;11.48;;;11.60;99.90;;;10.82;95.65;99134.81;4119310;28;20101;-70
2021/01/30 08:49:38;;;;;;;42.03;9.50;;;11.60;99.90;;;10.81;95.70;99149.84;4117799;28;20027;-70
2021/01/30 08:51:39;;;;;;;44.75;11.48;;;11.70;99.90;;;10.98;94.71;99137.94;4118719;28;20041;-71
2021/01/30 08:53:40;;;;;;;53.05;9.60;;;11.70;99.90;;;10.94;95.16;99130.63;4134732;28;20528;-71
2021/01/30 08:55:44;;;;;;;46.65;11.40;;;11.80;99.90;;;11.05;94.96;99130.06;4118539;28;20038;-71
2021/01/30 08:57:45;;;;;;;41.90;9.85;;;11.90;99.90;;;11.10;94.51;99122.34;4135546;28;20034;-71
2021/01/30 08:59:48;;;;;;;53.10;10.75;;;12.00;99.90;;;11.22;94.96;99117.31;4118407;28;20030;-71
2021/01/30 09:01:49;;;;;;;43.33;11.20;;;12.10;99.90;;;11.28;94.67;99114.69;4118290;28;20037;-71